sensor_id;sensor_type;location;lat;lon;timestamp;P1;durP1;ratioP1;P2;durP2;ratioP2
3278;SDS011;1651;50.940;6.888;2023-05-02T00:00:32;37.83;;;23.87;;
3278;SDS011;1651;50.940;6.888;2023-05-02T00:02:59;31.70;;;23.33;;
3278;SDS011;1651;50.940;6.888;2023-05-02T00:05:25;32.07;;;20.57;;
3278;SDS011;1651;50.940;6.888;2023-05-02T00:07:51;35.80;;;23.90;;
3278;SDS011;1651;50.940;6.888;2023-05-02T00:10:18;36.83;;;24.47;;
3278;SDS011;1651;50.940;6.888;2023-05-02T00:12:44;33.50;;;23.07;;
3278;SDS011;1651;50.940;6.888;2023-05-02T00:15:10;34.67;;;22.60;;
3278;SDS011;1651;50.940;6.888;2023-05-02T00:17:38;34.70;;;23.67;;
3278;SDS011;1651;50.940;6.888;2023-05-02T00:20:04;34.37;;;22.57;;
3278;SDS011;1651;50.940;6.888;2023-05-02T00:22:33;30.23;;;21.30;;
3278;SDS011;1651;50.940;6.888;2023-05-02T00:24:59;38.33;;;22.03;;
3278;SDS011;1651;50.940;6.888;2023-05-02T00:27:25;34.00;;;23.80;;
3278;SDS011;1651;50.940;6.888;2023-05-02T00:29:52;36.00;;;24.17;;
3278;SDS011;1651;50.940;6.888;2023-05-02T00:32:18;37.33;;;24.30;;
3278;SDS011;1651;50.940;6.888;2023-05-02T00:34:45;35.83;;;24.73;;
3278;SDS011;1651;50.940;6.888;2023-05-02T00:37:11;42.47;;;25.17;;
3278;SDS011;1651;50.940;6.888;2023-05-02T00:39:37;36.15;;;23.30;;
3278;SDS011;1651;50.940;6.888;2023-05-02T00:42:04;36.70;;;24.33;;
3278;SDS011;1651;50.940;6.888;2023-05-02T00:44:31;38.80;;;24.77;;
3278;SDS011;1651;50.940;6.888;2023-05-02T00:46:57;45.55;;;25.77;;
3278;SDS011;1651;50.940;6.888;2023-05-02T00:49:23;41.95;;;25.13;;
3278;SDS011;1651;50.940;6.888;2023-05-02T00:51:49;44.50;;;27.40;;
3278;SDS011;1651;50.940;6.888;2023-05-02T00:54:15;46.57;;;28.50;;
3278;SDS011;1651;50.940;6.888;2023-05-02T00:56:41;44.23;;;25.37;;
3278;SDS011;1651;50.940;6.888;2023-05-02T00:59:07;37.57;;;24.60;;
3278;SDS011;1651;50.940;6.888;2023-05-02T01:04:09;38.93;;;25.13;;
3278;SDS011;1651;50.940;6.888;2023-05-02T01:14:07;46.03;;;26.23;;
3278;SDS011;1651;50.940;6.888;2023-05-02T01:16:34;43.73;;;26.50;;
3278;SDS011;1651;50.940;6.888;2023-05-02T01:19:04;44.60;;;24.83;;
3278;SDS011;1651;50.940;6.888;2023-05-02T01:21:30;41.30;;;27.73;;
3278;SDS011;1651;50.940;6.888;2023-05-02T01:29:10;43.10;;;24.90;;
3278;SDS011;1651;50.940;6.888;2023-05-02T01:31:38;42.03;;;25.70;;
3278;SDS011;1651;50.940;6.888;2023-05-02T01:34:07;43.57;;;26.30;;
3278;SDS011;1651;50.940;6.888;2023-05-02T01:36:34;48.27;;;26.33;;
3278;SDS011;1651;50.940;6.888;2023-05-02T01:39:02;44.50;;;27.37;;
3278;SDS011;1651;50.940;6.888;2023-05-02T01:41:30;44.90;;;28.53;;
3278;SDS011;1651;50.940;6.888;2023-05-02T01:43:57;46.20;;;27.57;;
3278;SDS011;1651;50.940;6.888;2023-05-02T01:58:06;56.03;;;27.88;;
3278;SDS011;1651;50.940;6.888;2023-05-02T02:07:25;55.23;;;27.47;;
3278;SDS011;1651;50.940;6.888;2023-05-02T02:10:20;50.63;;;27.40;;
3278;SDS011;1651;50.940;6.888;2023-05-02T02:28:59;54.93;;;28.90;;
3278;SDS011;1651;50.940;6.888;2023-05-02T02:31:34;50.83;;;25.90;;
3278;SDS011;1651;50.940;6.888;2023-05-02T02:34:03;43.77;;;24.83;;
3278;SDS011;1651;50.940;6.888;2023-05-02T02:36:32;47.70;;;28.10;;
3278;SDS011;1651;50.940;6.888;2023-05-02T02:39:11;50.07;;;27.90;;
3278;SDS011;1651;50.940;6.888;2023-05-02T02:41:42;44.90;;;26.23;;
3278;SDS011;1651;50.940;6.888;2023-05-02T02:44:17;43.40;;;23.50;;
3278;SDS011;1651;50.940;6.888;2023-05-02T02:46:53;42.63;;;24.23;;
3278;SDS011;1651;50.940;6.888;2023-05-02T02:52:09;43.93;;;23.30;;
3278;SDS011;1651;50.940;6.888;2023-05-02T02:54:44;37.93;;;22.77;;
3278;SDS011;1651;50.940;6.888;2023-05-02T02:57:16;38.80;;;21.50;;
3278;SDS011;1651;50.940;6.888;2023-05-02T02:59:48;40.30;;;23.30;;
3278;SDS011;1651;50.940;6.888;2023-05-02T03:02:16;39.60;;;23.77;;
3278;SDS011;1651;50.940;6.888;2023-05-02T03:04:44;43.40;;;23.27;;
3278;SDS011;1651;50.940;6.888;2023-05-02T03:07:11;39.33;;;22.33;;
3278;SDS011;1651;50.940;6.888;2023-05-02T03:09:44;36.00;;;22.50;;
3278;SDS011;1651;50.940;6.888;2023-05-02T03:12:10;42.70;;;24.27;;
3278;SDS011;1651;50.940;6.888;2023-05-02T03:14:37;46.30;;;24.50;;
3278;SDS011;1651;50.940;6.888;2023-05-02T03:17:03;40.30;;;23.40;;
3278;SDS011;1651;50.940;6.888;2023-05-02T03:19:29;34.07;;;22.13;;
3278;SDS011;1651;50.940;6.888;2023-05-02T03:21:55;40.33;;;23.27;;
3278;SDS011;1651;50.940;6.888;2023-05-02T03:24:21;41.20;;;22.13;;
3278;SDS011;1651;50.940;6.888;2023-05-02T03:26:47;42.70;;;22.23;;
3278;SDS011;1651;50.940;6.888;2023-05-02T03:29:14;46.63;;;22.40;;
3278;SDS011;1651;50.940;6.888;2023-05-02T03:31:40;42.43;;;25.07;;
3278;SDS011;1651;50.940;6.888;2023-05-02T03:34:06;39.40;;;21.23;;
3278;SDS011;1651;50.940;6.888;2023-05-02T03:36:32;37.70;;;22.20;;
3278;SDS011;1651;50.940;6.888;2023-05-02T03:38:58;41.60;;;22.37;;
3278;SDS011;1651;50.940;6.888;2023-05-02T03:41:25;45.57;;;23.80;;
3278;SDS011;1651;50.940;6.888;2023-05-02T03:43:50;38.77;;;22.40;;
3278;SDS011;1651;50.940;6.888;2023-05-02T03:46:16;39.10;;;23.57;;
3278;SDS011;1651;50.940;6.888;2023-05-02T03:48:43;39.43;;;22.13;;
3278;SDS011;1651;50.940;6.888;2023-05-02T03:51:10;36.80;;;20.13;;
3278;SDS011;1651;50.940;6.888;2023-05-02T03:53:36;37.00;;;21.67;;
3278;SDS011;1651;50.940;6.888;2023-05-02T03:56:02;36.37;;;20.03;;
3278;SDS011;1651;50.940;6.888;2023-05-02T03:58:28;34.37;;;20.30;;
3278;SDS011;1651;50.940;6.888;2023-05-02T04:00:54;35.80;;;21.20;;
3278;SDS011;1651;50.940;6.888;2023-05-02T04:03:21;39.43;;;21.17;;
3278;SDS011;1651;50.940;6.888;2023-05-02T04:05:51;35.73;;;21.60;;
3278;SDS011;1651;50.940;6.888;2023-05-02T04:08:17;38.60;;;21.07;;
3278;SDS011;1651;50.940;6.888;2023-05-02T04:10:43;37.40;;;22.70;;
3278;SDS011;1651;50.940;6.888;2023-05-02T04:13:09;41.80;;;23.87;;
3278;SDS011;1651;50.940;6.888;2023-05-02T04:15:35;37.47;;;20.50;;
3278;SDS011;1651;50.940;6.888;2023-05-02T04:18:01;37.13;;;20.50;;
3278;SDS011;1651;50.940;6.888;2023-05-02T04:20:28;34.20;;;20.30;;
3278;SDS011;1651;50.940;6.888;2023-05-02T04:22:54;42.20;;;22.30;;
3278;SDS011;1651;50.940;6.888;2023-05-02T04:25:20;35.70;;;21.60;;
3278;SDS011;1651;50.940;6.888;2023-05-02T04:27:46;40.53;;;20.80;;
3278;SDS011;1651;50.940;6.888;2023-05-02T04:30:13;34.67;;;20.23;;
3278;SDS011;1651;50.940;6.888;2023-05-02T04:32:39;43.20;;;22.60;;
3278;SDS011;1651;50.940;6.888;2023-05-02T04:35:06;35.53;;;21.07;;
3278;SDS011;1651;50.940;6.888;2023-05-02T04:37:32;41.27;;;21.80;;
3278;SDS011;1651;50.940;6.888;2023-05-02T04:39:58;37.90;;;21.67;;
3278;SDS011;1651;50.940;6.888;2023-05-02T04:42:25;41.43;;;21.10;;
3278;SDS011;1651;50.940;6.888;2023-05-02T04:44:51;33.80;;;18.67;;
3278;SDS011;1651;50.940;6.888;2023-05-02T04:47:17;37.50;;;20.57;;
3278;SDS011;1651;50.940;6.888;2023-05-02T04:49:43;38.60;;;21.30;;
3278;SDS011;1651;50.940;6.888;2023-05-02T04:52:11;32.30;;;19.23;;
3278;SDS011;1651;50.940;6.888;2023-05-02T04:57:23;37.40;;;21.40;;
3278;SDS011;1651;50.940;6.888;2023-05-02T04:59:49;34.10;;;20.00;;
3278;SDS011;1651;50.940;6.888;2023-05-02T05:02:15;36.10;;;20.90;;
3278;SDS011;1651;50.940;6.888;2023-05-02T05:04:41;37.57;;;20.07;;
3278;SDS011;1651;50.940;6.888;2023-05-02T05:07:09;34.97;;;19.20;;
3278;SDS011;1651;50.940;6.888;2023-05-02T05:09:35;35.30;;;19.20;;
3278;SDS011;1651;50.940;6.888;2023-05-02T05:12:02;32.00;;;18.40;;
3278;SDS011;1651;50.940;6.888;2023-05-02T05:14:28;35.80;;;20.50;;
3278;SDS011;1651;50.940;6.888;2023-05-02T05:16:55;31.27;;;17.27;;
3278;SDS011;1651;50.940;6.888;2023-05-02T05:19:22;30.60;;;17.13;;
3278;SDS011;1651;50.940;6.888;2023-05-02T05:21:48;30.53;;;18.27;;
3278;SDS011;1651;50.940;6.888;2023-05-02T05:24:14;30.43;;;18.70;;
3278;SDS011;1651;50.940;6.888;2023-05-02T05:26:40;31.27;;;17.90;;
3278;SDS011;1651;50.940;6.888;2023-05-02T05:29:06;34.23;;;16.87;;
3278;SDS011;1651;50.940;6.888;2023-05-02T05:31:32;26.30;;;16.00;;
3278;SDS011;1651;50.940;6.888;2023-05-02T05:33:59;30.03;;;17.70;;
3278;SDS011;1651;50.940;6.888;2023-05-02T05:36:27;26.80;;;16.70;;
3278;SDS011;1651;50.940;6.888;2023-05-02T05:38:53;28.03;;;15.50;;
3278;SDS011;1651;50.940;6.888;2023-05-02T05:41:19;34.40;;;18.20;;
3278;SDS011;1651;50.940;6.888;2023-05-02T05:43:45;29.33;;;17.07;;
3278;SDS011;1651;50.940;6.888;2023-05-02T05:46:11;27.60;;;16.23;;
3278;SDS011;1651;50.940;6.888;2023-05-02T05:48:37;28.20;;;17.57;;
3278;SDS011;1651;50.940;6.888;2023-05-02T05:51:03;29.57;;;15.90;;
3278;SDS011;1651;50.940;6.888;2023-05-02T05:53:30;26.37;;;14.37;;
3278;SDS011;1651;50.940;6.888;2023-05-02T05:55:56;27.17;;;14.60;;
3278;SDS011;1651;50.940;6.888;2023-05-02T05:58:22;23.70;;;14.13;;
3278;SDS011;1651;50.940;6.888;2023-05-02T06:00:48;22.77;;;14.80;;
3278;SDS011;1651;50.940;6.888;2023-05-02T06:03:15;24.03;;;13.13;;
3278;SDS011;1651;50.940;6.888;2023-05-02T06:05:42;24.23;;;14.00;;
3278;SDS011;1651;50.940;6.888;2023-05-02T06:08:10;27.60;;;15.90;;
3278;SDS011;1651;50.940;6.888;2023-05-02T06:10:36;31.03;;;14.10;;
3278;SDS011;1651;50.940;6.888;2023-05-02T06:13:04;25.57;;;14.03;;
3278;SDS011;1651;50.940;6.888;2023-05-02T06:15:31;24.37;;;15.13;;
3278;SDS011;1651;50.940;6.888;2023-05-02T06:17:58;25.10;;;16.20;;
3278;SDS011;1651;50.940;6.888;2023-05-02T06:20:24;27.13;;;14.93;;
3278;SDS011;1651;50.940;6.888;2023-05-02T06:22:50;24.33;;;15.07;;
3278;SDS011;1651;50.940;6.888;2023-05-02T06:25:17;27.67;;;15.07;;
3278;SDS011;1651;50.940;6.888;2023-05-02T06:27:43;31.30;;;14.30;;
3278;SDS011;1651;50.940;6.888;2023-05-02T06:30:10;24.53;;;14.80;;
3278;SDS011;1651;50.940;6.888;2023-05-02T06:32:36;26.47;;;15.00;;
3278;SDS011;1651;50.940;6.888;2023-05-02T06:35:02;32.83;;;17.10;;
3278;SDS011;1651;50.940;6.888;2023-05-02T06:37:31;26.43;;;14.77;;
3278;SDS011;1651;50.940;6.888;2023-05-02T06:40:00;23.20;;;14.17;;
3278;SDS011;1651;50.940;6.888;2023-05-02T06:44:55;32.27;;;15.70;;
3278;SDS011;1651;50.940;6.888;2023-05-02T06:47:22;30.33;;;16.03;;
3278;SDS011;1651;50.940;6.888;2023-05-02T06:49:50;25.47;;;14.73;;
3278;SDS011;1651;50.940;6.888;2023-05-02T06:52:16;22.77;;;13.90;;
3278;SDS011;1651;50.940;6.888;2023-05-02T06:54:42;23.70;;;12.30;;
3278;SDS011;1651;50.940;6.888;2023-05-02T06:57:10;25.70;;;14.07;;
3278;SDS011;1651;50.940;6.888;2023-05-02T06:59:36;20.27;;;13.23;;
3278;SDS011;1651;50.940;6.888;2023-05-02T07:02:03;23.37;;;14.00;;
3278;SDS011;1651;50.940;6.888;2023-05-02T07:04:29;29.10;;;14.87;;
3278;SDS011;1651;50.940;6.888;2023-05-02T07:06:55;24.10;;;12.93;;
3278;SDS011;1651;50.940;6.888;2023-05-02T07:09:21;21.87;;;13.33;;
3278;SDS011;1651;50.940;6.888;2023-05-02T07:11:47;21.27;;;12.87;;
3278;SDS011;1651;50.940;6.888;2023-05-02T07:14:13;23.07;;;13.03;;
3278;SDS011;1651;50.940;6.888;2023-05-02T07:16:40;21.47;;;12.23;;
3278;SDS011;1651;50.940;6.888;2023-05-02T07:19:06;18.03;;;11.03;;
3278;SDS011;1651;50.940;6.888;2023-05-02T07:21:33;17.03;;;11.50;;
3278;SDS011;1651;50.940;6.888;2023-05-02T07:23:59;19.43;;;10.17;;
3278;SDS011;1651;50.940;6.888;2023-05-02T07:26:26;17.87;;;11.80;;
3278;SDS011;1651;50.940;6.888;2023-05-02T07:28:53;19.00;;;11.00;;
3278;SDS011;1651;50.940;6.888;2023-05-02T07:31:19;19.27;;;12.03;;
3278;SDS011;1651;50.940;6.888;2023-05-02T07:33:45;15.70;;;11.13;;
3278;SDS011;1651;50.940;6.888;2023-05-02T07:36:11;16.30;;;9.60;;
3278;SDS011;1651;50.940;6.888;2023-05-02T07:38:37;19.63;;;10.93;;
3278;SDS011;1651;50.940;6.888;2023-05-02T07:41:03;17.50;;;9.80;;
3278;SDS011;1651;50.940;6.888;2023-05-02T07:43:30;11.50;;;9.13;;
3278;SDS011;1651;50.940;6.888;2023-05-02T07:45:56;16.37;;;11.00;;
3278;SDS011;1651;50.940;6.888;2023-05-02T07:48:23;14.70;;;8.53;;
3278;SDS011;1651;50.940;6.888;2023-05-02T07:50:49;16.83;;;9.67;;
3278;SDS011;1651;50.940;6.888;2023-05-02T07:53:16;17.97;;;9.83;;
3278;SDS011;1651;50.940;6.888;2023-05-02T07:55:42;12.83;;;9.57;;
3278;SDS011;1651;50.940;6.888;2023-05-02T07:58:08;13.70;;;10.07;;
3278;SDS011;1651;50.940;6.888;2023-05-02T08:00:35;17.03;;;10.07;;
3278;SDS011;1651;50.940;6.888;2023-05-02T08:03:01;16.93;;;11.03;;
3278;SDS011;1651;50.940;6.888;2023-05-02T08:05:27;16.13;;;11.37;;
3278;SDS011;1651;50.940;6.888;2023-05-02T08:07:53;22.30;;;13.47;;
3278;SDS011;1651;50.940;6.888;2023-05-02T08:10:19;18.77;;;13.60;;
3278;SDS011;1651;50.940;6.888;2023-05-02T08:12:45;23.40;;;11.83;;
3278;SDS011;1651;50.940;6.888;2023-05-02T08:15:11;18.30;;;9.43;;
3278;SDS011;1651;50.940;6.888;2023-05-02T08:17:38;17.53;;;9.80;;
3278;SDS011;1651;50.940;6.888;2023-05-02T08:20:06;15.40;;;9.30;;
3278;SDS011;1651;50.940;6.888;2023-05-02T08:22:33;13.77;;;7.30;;
3278;SDS011;1651;50.940;6.888;2023-05-02T08:24:59;9.87;;;6.53;;
3278;SDS011;1651;50.940;6.888;2023-05-02T08:27:25;12.17;;;6.20;;
3278;SDS011;1651;50.940;6.888;2023-05-02T08:29:51;8.83;;;5.57;;
3278;SDS011;1651;50.940;6.888;2023-05-02T08:32:17;8.57;;;5.60;;
3278;SDS011;1651;50.940;6.888;2023-05-02T08:34:43;7.60;;;4.43;;
3278;SDS011;1651;50.940;6.888;2023-05-02T08:37:10;5.27;;;4.63;;
3278;SDS011;1651;50.940;6.888;2023-05-02T08:39:37;8.23;;;3.63;;
3278;SDS011;1651;50.940;6.888;2023-05-02T08:42:06;4.40;;;3.30;;
3278;SDS011;1651;50.940;6.888;2023-05-02T08:44:32;6.77;;;2.80;;
3278;SDS011;1651;50.940;6.888;2023-05-02T08:46:58;4.00;;;2.40;;
3278;SDS011;1651;50.940;6.888;2023-05-02T08:49:25;4.57;;;2.83;;
3278;SDS011;1651;50.940;6.888;2023-05-02T08:51:53;6.30;;;3.03;;
3278;SDS011;1651;50.940;6.888;2023-05-02T08:54:19;7.23;;;2.93;;
3278;SDS011;1651;50.940;6.888;2023-05-02T08:56:46;7.00;;;3.53;;
3278;SDS011;1651;50.940;6.888;2023-05-02T08:59:13;5.93;;;4.07;;
3278;SDS011;1651;50.940;6.888;2023-05-02T09:01:39;5.63;;;2.90;;
3278;SDS011;1651;50.940;6.888;2023-05-02T09:04:06;4.30;;;3.47;;
3278;SDS011;1651;50.940;6.888;2023-05-02T09:06:32;6.57;;;3.20;;
3278;SDS011;1651;50.940;6.888;2023-05-02T09:08:59;9.40;;;3.30;;
3278;SDS011;1651;50.940;6.888;2023-05-02T09:11:25;5.73;;;4.07;;
3278;SDS011;1651;50.940;6.888;2023-05-02T09:13:51;11.40;;;5.60;;
3278;SDS011;1651;50.940;6.888;2023-05-02T09:16:24;11.60;;;7.00;;
3278;SDS011;1651;50.940;6.888;2023-05-02T09:18:52;13.57;;;8.17;;
3278;SDS011;1651;50.940;6.888;2023-05-02T09:21:20;10.80;;;7.50;;
3278;SDS011;1651;50.940;6.888;2023-05-02T09:23:47;12.10;;;7.53;;
3278;SDS011;1651;50.940;6.888;2023-05-02T09:26:17;15.13;;;7.40;;
3278;SDS011;1651;50.940;6.888;2023-05-02T09:28:45;10.17;;;6.93;;
3278;SDS011;1651;50.940;6.888;2023-05-02T09:31:15;9.63;;;6.23;;
3278;SDS011;1651;50.940;6.888;2023-05-02T09:33:42;11.67;;;6.87;;
3278;SDS011;1651;50.940;6.888;2023-05-02T09:36:10;10.60;;;7.30;;
3278;SDS011;1651;50.940;6.888;2023-05-02T09:38:40;16.33;;;7.10;;
3278;SDS011;1651;50.940;6.888;2023-05-02T09:41:06;8.33;;;7.07;;
3278;SDS011;1651;50.940;6.888;2023-05-02T09:43:32;11.47;;;7.43;;
3278;SDS011;1651;50.940;6.888;2023-05-02T09:48:27;12.80;;;7.80;;
3278;SDS011;1651;50.940;6.888;2023-05-02T09:50:54;8.53;;;7.67;;
3278;SDS011;1651;50.940;6.888;2023-05-02T09:53:25;7.63;;;6.60;;
3278;SDS011;1651;50.940;6.888;2023-05-02T09:55:58;10.47;;;7.93;;
3278;SDS011;1651;50.940;6.888;2023-05-02T09:58:25;10.30;;;8.83;;
3278;SDS011;1651;50.940;6.888;2023-05-02T10:00:52;11.40;;;8.07;;
3278;SDS011;1651;50.940;6.888;2023-05-02T10:03:18;15.70;;;8.37;;
3278;SDS011;1651;50.940;6.888;2023-05-02T10:05:45;9.23;;;7.83;;
3278;SDS011;1651;50.940;6.888;2023-05-02T10:08:11;8.30;;;6.83;;
3278;SDS011;1651;50.940;6.888;2023-05-02T10:10:39;13.53;;;8.10;;
3278;SDS011;1651;50.940;6.888;2023-05-02T10:13:05;8.43;;;6.93;;
3278;SDS011;1651;50.940;6.888;2023-05-02T10:15:31;12.73;;;6.80;;
3278;SDS011;1651;50.940;6.888;2023-05-02T10:17:58;12.00;;;7.43;;
3278;SDS011;1651;50.940;6.888;2023-05-02T10:20:28;8.97;;;7.33;;
3278;SDS011;1651;50.940;6.888;2023-05-02T10:22:55;10.33;;;7.00;;
3278;SDS011;1651;50.940;6.888;2023-05-02T10:25:24;16.20;;;7.90;;
3278;SDS011;1651;50.940;6.888;2023-05-02T10:27:50;12.43;;;7.30;;
3278;SDS011;1651;50.940;6.888;2023-05-02T10:30:16;9.57;;;6.63;;
3278;SDS011;1651;50.940;6.888;2023-05-02T10:32:44;7.87;;;5.90;;
3278;SDS011;1651;50.940;6.888;2023-05-02T10:35:12;8.13;;;5.50;;
3278;SDS011;1651;50.940;6.888;2023-05-02T10:37:38;5.23;;;4.73;;
3278;SDS011;1651;50.940;6.888;2023-05-02T10:40:08;7.90;;;4.47;;
3278;SDS011;1651;50.940;6.888;2023-05-02T10:42:39;11.37;;;4.30;;
3278;SDS011;1651;50.940;6.888;2023-05-02T10:45:40;5.70;;;4.30;;
3278;SDS011;1651;50.940;6.888;2023-05-02T10:48:21;8.43;;;4.80;;
3278;SDS011;1651;50.940;6.888;2023-05-02T10:50:51;7.90;;;4.33;;
3278;SDS011;1651;50.940;6.888;2023-05-02T10:58:33;10.33;;;7.03;;
3278;SDS011;1651;50.940;6.888;2023-05-02T11:03:55;8.10;;;6.80;;
3278;SDS011;1651;50.940;6.888;2023-05-02T11:06:22;9.67;;;6.70;;
3278;SDS011;1651;50.940;6.888;2023-05-02T11:08:48;10.50;;;6.10;;
3278;SDS011;1651;50.940;6.888;2023-05-02T11:14:01;10.53;;;5.70;;
3278;SDS011;1651;50.940;6.888;2023-05-02T11:16:38;11.07;;;6.03;;
3278;SDS011;1651;50.940;6.888;2023-05-02T11:19:13;8.60;;;6.10;;
3278;SDS011;1651;50.940;6.888;2023-05-02T11:21:40;7.30;;;6.07;;
3278;SDS011;1651;50.940;6.888;2023-05-02T11:26:52;6.40;;;5.77;;
3278;SDS011;1651;50.940;6.888;2023-05-02T11:30:04;8.30;;;6.20;;
3278;SDS011;1651;50.940;6.888;2023-05-02T11:32:05;10.07;;;5.30;;
3278;SDS011;1651;50.940;6.888;2023-05-02T11:34:38;7.03;;;5.33;;
3278;SDS011;1651;50.940;6.888;2023-05-02T11:37:12;8.33;;;5.90;;
3278;SDS011;1651;50.940;6.888;2023-05-02T11:39:39;13.37;;;5.53;;
3278;SDS011;1651;50.940;6.888;2023-05-02T11:42:05;7.10;;;5.50;;
3278;SDS011;1651;50.940;6.888;2023-05-02T11:44:31;5.70;;;4.97;;
3278;SDS011;1651;50.940;6.888;2023-05-02T11:46:57;11.17;;;5.37;;
3278;SDS011;1651;50.940;6.888;2023-05-02T11:49:23;7.80;;;5.10;;
3278;SDS011;1651;50.940;6.888;2023-05-02T11:51:50;7.60;;;4.93;;
3278;SDS011;1651;50.940;6.888;2023-05-02T11:54:17;7.50;;;6.00;;
3278;SDS011;1651;50.940;6.888;2023-05-02T11:56:43;5.80;;;5.17;;
3278;SDS011;1651;50.940;6.888;2023-05-02T11:59:10;7.50;;;4.53;;
3278;SDS011;1651;50.940;6.888;2023-05-02T12:01:36;8.83;;;5.40;;
3278;SDS011;1651;50.940;6.888;2023-05-02T12:04:11;6.70;;;5.30;;
3278;SDS011;1651;50.940;6.888;2023-05-02T12:06:37;5.77;;;4.43;;
3278;SDS011;1651;50.940;6.888;2023-05-02T12:09:07;7.83;;;4.37;;
3278;SDS011;1651;50.940;6.888;2023-05-02T12:11:34;6.50;;;3.50;;
3278;SDS011;1651;50.940;6.888;2023-05-02T12:14:00;8.53;;;4.53;;
3278;SDS011;1651;50.940;6.888;2023-05-02T12:16:26;4.17;;;3.23;;
3278;SDS011;1651;50.940;6.888;2023-05-02T12:18:52;6.90;;;3.60;;
3278;SDS011;1651;50.940;6.888;2023-05-02T12:21:21;7.00;;;3.83;;
3278;SDS011;1651;50.940;6.888;2023-05-02T12:23:47;5.30;;;3.50;;
3278;SDS011;1651;50.940;6.888;2023-05-02T12:26:23;9.20;;;5.53;;
3278;SDS011;1651;50.940;6.888;2023-05-02T12:28:53;9.80;;;5.30;;
3278;SDS011;1651;50.940;6.888;2023-05-02T12:31:19;9.93;;;5.07;;
3278;SDS011;1651;50.940;6.888;2023-05-02T12:33:47;7.50;;;5.37;;
3278;SDS011;1651;50.940;6.888;2023-05-02T12:36:17;5.60;;;4.67;;
3278;SDS011;1651;50.940;6.888;2023-05-02T12:38:47;6.60;;;4.80;;
3278;SDS011;1651;50.940;6.888;2023-05-02T12:41:14;7.67;;;4.87;;
3278;SDS011;1651;50.940;6.888;2023-05-02T12:43:47;6.97;;;4.00;;
3278;SDS011;1651;50.940;6.888;2023-05-02T12:46:15;6.00;;;3.77;;
3278;SDS011;1651;50.940;6.888;2023-05-02T12:48:41;4.17;;;3.20;;
3278;SDS011;1651;50.940;6.888;2023-05-02T12:51:21;5.67;;;3.67;;
3278;SDS011;1651;50.940;6.888;2023-05-02T12:53:55;5.97;;;4.00;;
3278;SDS011;1651;50.940;6.888;2023-05-02T12:56:24;6.83;;;3.73;;
3278;SDS011;1651;50.940;6.888;2023-05-02T12:58:58;4.57;;;3.17;;
3278;SDS011;1651;50.940;6.888;2023-05-02T13:01:31;5.07;;;3.50;;
3278;SDS011;1651;50.940;6.888;2023-05-02T13:03:58;6.63;;;3.20;;
3278;SDS011;1651;50.940;6.888;2023-05-02T13:06:24;6.73;;;3.43;;
3278;SDS011;1651;50.940;6.888;2023-05-02T13:08:50;5.53;;;3.10;;
3278;SDS011;1651;50.940;6.888;2023-05-02T13:11:16;7.13;;;4.30;;
3278;SDS011;1651;50.940;6.888;2023-05-02T13:13:44;4.37;;;3.37;;
3278;SDS011;1651;50.940;6.888;2023-05-02T13:16:10;6.90;;;3.77;;
3278;SDS011;1651;50.940;6.888;2023-05-02T13:18:36;8.53;;;4.00;;
3278;SDS011;1651;50.940;6.888;2023-05-02T13:21:02;6.77;;;4.57;;
3278;SDS011;1651;50.940;6.888;2023-05-02T13:23:29;4.37;;;3.10;;
3278;SDS011;1651;50.940;6.888;2023-05-02T13:25:55;6.30;;;3.27;;
3278;SDS011;1651;50.940;6.888;2023-05-02T13:28:20;5.70;;;3.17;;
3278;SDS011;1651;50.940;6.888;2023-05-02T13:30:50;6.73;;;3.90;;
3278;SDS011;1651;50.940;6.888;2023-05-02T13:33:16;9.00;;;3.50;;
3278;SDS011;1651;50.940;6.888;2023-05-02T13:35:42;8.20;;;3.83;;
3278;SDS011;1651;50.940;6.888;2023-05-02T13:38:09;5.60;;;4.17;;
3278;SDS011;1651;50.940;6.888;2023-05-02T13:40:35;11.33;;;3.70;;
3278;SDS011;1651;50.940;6.888;2023-05-02T13:43:01;5.03;;;3.43;;
3278;SDS011;1651;50.940;6.888;2023-05-02T13:45:27;8.10;;;4.40;;
3278;SDS011;1651;50.940;6.888;2023-05-02T13:47:54;7.27;;;3.80;;
3278;SDS011;1651;50.940;6.888;2023-05-02T13:50:21;11.73;;;3.83;;
3278;SDS011;1651;50.940;6.888;2023-05-02T13:52:46;4.40;;;3.70;;
3278;SDS011;1651;50.940;6.888;2023-05-02T13:55:12;11.70;;;4.40;;
3278;SDS011;1651;50.940;6.888;2023-05-02T13:57:39;6.70;;;3.90;;
3278;SDS011;1651;50.940;6.888;2023-05-02T14:00:07;6.73;;;3.40;;
3278;SDS011;1651;50.940;6.888;2023-05-02T14:02:34;5.73;;;3.20;;
3278;SDS011;1651;50.940;6.888;2023-05-02T14:05:01;7.73;;;3.67;;
3278;SDS011;1651;50.940;6.888;2023-05-02T14:07:27;6.13;;;4.00;;
3278;SDS011;1651;50.940;6.888;2023-05-02T14:09:53;6.40;;;3.93;;
3278;SDS011;1651;50.940;6.888;2023-05-02T14:12:19;5.07;;;3.40;;
3278;SDS011;1651;50.940;6.888;2023-05-02T14:14:45;6.60;;;4.23;;
3278;SDS011;1651;50.940;6.888;2023-05-02T14:17:11;4.53;;;3.50;;
3278;SDS011;1651;50.940;6.888;2023-05-02T14:19:37;9.97;;;3.63;;
3278;SDS011;1651;50.940;6.888;2023-05-02T14:22:24;6.17;;;3.60;;
3278;SDS011;1651;50.940;6.888;2023-05-02T14:24:50;8.00;;;3.73;;
3278;SDS011;1651;50.940;6.888;2023-05-02T14:27:18;7.60;;;4.70;;
3278;SDS011;1651;50.940;6.888;2023-05-02T14:29:44;8.27;;;5.20;;
3278;SDS011;1651;50.940;6.888;2023-05-02T14:32:10;7.17;;;4.23;;
3278;SDS011;1651;50.940;6.888;2023-05-02T14:34:37;7.03;;;3.47;;
3278;SDS011;1651;50.940;6.888;2023-05-02T14:37:07;4.97;;;4.27;;
3278;SDS011;1651;50.940;6.888;2023-05-02T14:39:34;6.17;;;3.70;;
3278;SDS011;1651;50.940;6.888;2023-05-02T14:42:00;9.53;;;3.73;;
3278;SDS011;1651;50.940;6.888;2023-05-02T14:44:28;6.10;;;4.20;;
3278;SDS011;1651;50.940;6.888;2023-05-02T14:47:01;5.10;;;3.80;;
3278;SDS011;1651;50.940;6.888;2023-05-02T14:49:27;10.83;;;3.97;;
3278;SDS011;1651;50.940;6.888;2023-05-02T14:51:55;7.60;;;4.30;;
3278;SDS011;1651;50.940;6.888;2023-05-02T14:54:25;6.47;;;4.07;;
3278;SDS011;1651;50.940;6.888;2023-05-02T14:56:51;4.30;;;3.27;;
3278;SDS011;1651;50.940;6.888;2023-05-02T14:59:17;5.43;;;3.73;;
3278;SDS011;1651;50.940;6.888;2023-05-02T15:01:43;6.40;;;4.40;;
3278;SDS011;1651;50.940;6.888;2023-05-02T15:04:11;6.53;;;3.90;;
3278;SDS011;1651;50.940;6.888;2023-05-02T15:06:36;6.63;;;3.80;;
3278;SDS011;1651;50.940;6.888;2023-05-02T15:09:07;6.50;;;4.30;;
3278;SDS011;1651;50.940;6.888;2023-05-02T15:11:32;6.83;;;4.40;;
3278;SDS011;1651;50.940;6.888;2023-05-02T15:13:58;7.27;;;5.23;;
3278;SDS011;1651;50.940;6.888;2023-05-02T15:16:25;6.50;;;4.63;;
3278;SDS011;1651;50.940;6.888;2023-05-02T15:18:51;8.70;;;3.83;;
3278;SDS011;1651;50.940;6.888;2023-05-02T15:21:16;7.10;;;3.73;;
3278;SDS011;1651;50.940;6.888;2023-05-02T15:23:42;8.97;;;3.50;;
3278;SDS011;1651;50.940;6.888;2023-05-02T15:26:08;7.00;;;3.80;;
3278;SDS011;1651;50.940;6.888;2023-05-02T15:28:35;7.40;;;3.93;;
3278;SDS011;1651;50.940;6.888;2023-05-02T15:31:01;5.13;;;3.47;;
3278;SDS011;1651;50.940;6.888;2023-05-02T15:33:27;5.33;;;3.33;;
3278;SDS011;1651;50.940;6.888;2023-05-02T15:35:53;3.63;;;3.33;;
3278;SDS011;1651;50.940;6.888;2023-05-02T15:38:21;5.37;;;2.93;;
3278;SDS011;1651;50.940;6.888;2023-05-02T15:40:57;4.63;;;3.53;;
3278;SDS011;1651;50.940;6.888;2023-05-02T15:43:25;8.03;;;3.43;;
3278;SDS011;1651;50.940;6.888;2023-05-02T15:45:57;6.37;;;4.00;;
3278;SDS011;1651;50.940;6.888;2023-05-02T15:48:25;4.83;;;3.90;;
3278;SDS011;1651;50.940;6.888;2023-05-02T15:50:51;6.30;;;4.17;;
3278;SDS011;1651;50.940;6.888;2023-05-02T15:53:17;6.57;;;4.03;;
3278;SDS011;1651;50.940;6.888;2023-05-02T15:55:46;4.60;;;3.23;;
3278;SDS011;1651;50.940;6.888;2023-05-02T15:58:12;6.60;;;4.40;;
3278;SDS011;1651;50.940;6.888;2023-05-02T16:00:38;3.83;;;3.30;;
3278;SDS011;1651;50.940;6.888;2023-05-02T16:03:04;4.70;;;3.40;;
3278;SDS011;1651;50.940;6.888;2023-05-02T16:05:31;7.97;;;3.70;;
3278;SDS011;1651;50.940;6.888;2023-05-02T16:07:57;6.90;;;3.30;;
3278;SDS011;1651;50.940;6.888;2023-05-02T16:10:23;5.90;;;4.53;;
3278;SDS011;1651;50.940;6.888;2023-05-02T16:12:49;5.60;;;4.17;;
3278;SDS011;1651;50.940;6.888;2023-05-02T16:15:15;4.73;;;3.43;;